Time;durP1;ratioP1;P1;durP2;ratioP2;P2;SDS_P1;SDS_P2;PMS_P1;PMS_P2;Temp;Humidity;BMP_temperature;BMP_pressure;BME280_temperature;BME280_humidity;BME280_pressure;Samples;Min_cycle;Max_cycle;Signal;HPM_P1;HPM_P2
2023/03/11 00:01:13;;;;;;;3.03;1.80;;;;;;;10.90;62.61;97479.56;5025472;28;100264;-84
2023/03/11 00:03:39;;;;;;;2.22;1.50;;;;;;;10.83;62.91;97467.91;5015296;28;100343;-85
2023/03/11 00:06:06;;;;;;;3.53;1.73;;;;;;;10.84;62.82;97466.94;5028996;28;97137;-84
2023/03/11 00:08:31;;;;;;;2.83;1.60;;;;;;;10.86;62.26;97465.03;5030084;28;97362;-85
2023/03/11 00:10:59;;;;;;;2.20;1.55;;;;;;;10.82;62.34;97463.59;5011548;28;101796;-84
2023/03/11 00:13:25;;;;;;;2.10;1.42;;;;;;;10.89;62.58;97477.91;5011436;28;98432;-84
2023/03/11 00:15:55;;;;;;;2.85;1.50;;;;;;;10.82;62.01;97476.72;4989592;28;97572;-84
2023/03/11 00:18:24;;;;;;;3.10;1.35;;;;;;;10.86;61.82;97473.72;5029661;27;97665;-84
2023/03/11 00:20:50;;;;;;;2.35;1.10;;;;;;;10.90;61.04;97476.94;5028555;27;100311;-84
2023/03/11 00:23:15;;;;;;;2.65;1.60;;;;;;;10.88;60.74;97484.13;5012064;28;101366;-84
2023/03/11 00:25:44;;;;;;;1.67;1.10;;;;;;;10.84;60.63;97475.63;5012223;28;97116;-84
2023/03/11 00:28:10;;;;;;;1.77;1.40;;;;;;;10.84;60.52;97478.25;5012124;28;97493;-84
2023/03/11 00:30:37;;;;;;;3.25;1.50;;;;;;;10.82;60.49;97492.44;5014246;28;101978;-85
2023/03/11 00:33:03;;;;;;;2.72;1.52;;;;;;;10.78;60.23;97486.63;5012231;28;101503;-84
2023/03/11 00:35:30;;;;;;;2.20;1.38;;;;;;;10.79;60.20;97488.31;5015504;27;96773;-85
2023/03/11 00:37:58;;;;;;;1.70;1.20;;;;;;;10.75;59.77;97486.88;5015711;28;97524;-84
2023/03/11 00:40:26;;;;;;;2.95;1.15;;;;;;;10.77;59.72;97489.38;5036431;27;99930;-84
2023/03/11 00:42:52;;;;;;;3.03;1.52;;;;;;;10.75;59.54;97488.66;5032459;27;98074;-84
2023/03/11 00:45:17;;;;;;;2.33;1.35;;;;;;;10.69;59.68;97478.66;4999150;28;97042;-84
2023/03/11 00:47:43;;;;;;;3.00;1.20;;;;;;;10.58;59.54;97463.75;5032220;27;98260;-85
2023/03/11 00:50:11;;;;;;;2.47;1.30;;;;;;;10.51;59.81;97463.41;5020694;28;97961;-84
2023/03/11 00:52:37;;;;;;;2.08;1.20;;;;;;;10.59;59.42;97462.81;5032808;28;98149;-84
2023/03/11 00:55:04;;;;;;;4.00;1.40;;;;;;;10.70;59.57;97483.75;5014081;28;96851;-84
2023/03/11 00:57:29;;;;;;;2.22;1.13;;;;;;;10.70;59.28;97488.19;5015886;28;97031;-84
2023/03/11 00:59:55;;;;;;;1.55;0.90;;;;;;;10.71;58.84;97485.44;5014928;28;102138;-83
2023/03/11 01:02:21;;;;;;;2.22;1.10;;;;;;;10.62;59.26;97484.41;5008119;28;101127;-84
2023/03/11 01:04:47;;;;;;;2.22;1.00;;;;;;;10.64;58.60;97497.38;5007548;28;96799;-84
2023/03/11 01:07:13;;;;;;;1.85;0.80;;;;;;;10.67;59.23;97494.50;5032721;28;97127;-83
2023/03/11 01:09:38;;;;;;;1.95;0.95;;;;;;;10.64;59.03;97489.50;5011817;28;101536;-83
2023/03/11 01:12:04;;;;;;;2.97;1.08;;;;;;;10.67;nan;97493.69;5014935;28;101595;-84
2023/03/11 01:14:30;;;;;;;2.30;0.80;;;;;;;10.62;59.44;97489.63;5015221;28;97325;-85
2023/03/11 01:16:55;;;;;;;2.03;0.80;;;;;;;10.63;59.79;97493.09;5032482;27;96753;-85
2023/03/11 01:19:21;;;;;;;1.90;0.70;;;;;;;10.62;60.40;97492.25;5015078;28;101111;-85
2023/03/11 01:21:47;;;;;;;1.02;0.60;;;;;;;10.59;60.58;97496.94;4996351;28;100192;-85
2023/03/11 01:24:13;;;;;;;4.25;0.80;;;;;;;10.58;61.29;97503.94;5016061;28;97271;-85
2023/03/11 01:26:38;;;;;;;1.08;0.80;;;;;;;10.62;62.28;97510.63;5016298;28;97013;-84
2023/03/11 01:29:04;;;;;;;0.80;0.70;;;;;;;10.41;62.65;97476.44;5016951;28;102081;-83
2023/03/11 01:31:29;;;;;;;1.45;0.98;;;;;;;10.55;63.07;97509.41;5014296;28;99542;-84
2023/03/11 01:33:56;;;;;;;5.35;1.00;;;;;;;10.53;62.95;97507.88;4995281;28;96922;-83
2023/03/11 01:36:21;;;;;;;2.20;0.90;;;;;;;10.43;63.47;97492.84;5028133;27;97080;-84
2023/03/11 01:38:47;;;;;;;1.52;1.10;;;;;;;10.33;63.64;97477.97;5029465;28;101690;-83
2023/03/11 01:41:12;;;;;;;1.08;0.88;;;;;;;10.46;63.86;97509.31;5010304;28;101833;-83
2023/03/11 01:43:44;;;;;;;0.68;0.60;;;;;;;10.40;64.07;97508.00;5034907;27;96933;-84
2023/03/11 01:46:36;;;;;;;1.60;1.10;;;;;;;10.31;64.15;97487.75;5022027;28;97294;-85
2023/03/11 01:49:03;;;;;;;2.03;0.80;;;;;;;10.38;64.12;97499.41;5030674;28;98481;-85
2023/03/11 01:51:37;;;;;;;1.38;0.80;;;;;;;10.26;63.96;97493.31;4994133;28;101527;-84
2023/03/11 01:54:37;;;;;;;3.10;1.13;;;;;;;10.36;64.32;97502.16;5028741;27;96990;-83
2023/03/11 01:57:05;;;;;;;0.77;0.60;;;;;;;10.32;64.07;97498.09;4996425;27;97171;-83
2023/03/11 01:59:35;;;;;;;3.03;0.98;;;;;;;10.27;64.53;97496.78;5030224;27;101471;-84
2023/03/11 02:02:05;;;;;;;1.95;1.05;;;;;;;10.00;64.22;97465.66;5014060;28;101468;-85
2023/03/11 02:04:33;;;;;;;0.88;0.75;;;;;;;10.13;64.37;97471.63;5030366;27;99557;-85
2023/03/11 02:07:00;;;;;;;1.88;0.90;;;;;;;10.25;64.34;97502.13;5013807;28;97041;-84
2023/03/11 02:09:26;;;;;;;4.75;1.13;;;;;;;10.17;64.01;97479.13;5013806;28;101260;-83
2023/03/11 02:11:52;;;;;;;1.38;0.90;;;;;;;10.17;64.08;97492.22;4993837;28;101688;-84
2023/03/11 02:14:18;;;;;;;1.58;0.73;;;;;;;10.22;64.23;97496.31;5021588;27;97619;-85
2023/03/11 02:16:44;;;;;;;1.30;0.90;;;;;;;10.30;63.93;97504.44;5029855;27;97177;-85
2023/03/11 02:19:37;;;;;;;1.67;0.60;;;;;;;10.26;64.01;97508.19;5025653;27;100029;-84
2023/03/11 02:22:03;;;;;;;1.50;0.82;;;;;;;10.24;64.24;97512.72;5023446;28;97752;-84
2023/03/11 02:24:49;;;;;;;1.45;0.90;;;;;;;10.20;64.12;97510.34;5027399;27;97370;-84
2023/03/11 02:27:17;;;;;;;4.10;1.02;;;;;;;10.20;64.40;97502.47;5029597;28;97521;-83
2023/03/11 02:29:48;;;;;;;1.13;0.70;;;;;;;10.22;64.28;97504.16;5017952;28;101807;-85
2023/03/11 02:32:15;;;;;;;1.30;0.65;;;;;;;10.18;64.84;97503.53;4997389;28;101937;-84
2023/03/11 02:34:42;;;;;;;0.77;0.60;;;;;;;10.20;64.65;97502.47;5014162;28;97203;-82
2023/03/11 02:37:10;;;;;;;1.75;0.90;;;;;;;10.18;64.50;97507.03;5030921;27;96944;-84
2023/03/11 02:39:45;;;;;;;1.00;0.80;;;;;;;10.13;64.29;97498.66;5010745;28;101976;-84
2023/03/11 02:42:17;;;;;;;1.30;0.80;;;;;;;9.99;64.20;97480.53;5029790;27;101505;-85
2023/03/11 02:44:46;;;;;;;1.35;0.80;;;;;;;10.05;64.27;97494.97;4992927;28;96932;-83
2023/03/11 02:47:11;;;;;;;2.25;0.95;;;;;;;10.11;64.64;97497.13;5007389;28;97122;-83
2023/03/11 02:49:37;;;;;;;2.35;1.35;;;;;;;10.09;64.66;97497.22;5026120;27;101686;-82
2023/03/11 02:52:03;;;;;;;1.80;0.88;;;;;;;10.09;64.31;97496.38;5013211;28;101579;-84
2023/03/11 02:54:29;;;;;;;4.68;1.58;;;;;;;10.02;63.70;97495.22;5029923;27;97147;-83
2023/03/11 02:56:56;;;;;;;3.00;1.30;;;;;;;10.09;64.08;97501.63;5028372;27;97229;-83
2023/03/11 02:59:21;;;;;;;2.10;1.00;;;;;;;9.96;63.98;97486.84;5018465;27;101508;-84
2023/03/11 03:01:47;;;;;;;1.70;1.00;;;;;;;10.02;63.36;97503.91;5011906;28;100915;-84
2023/03/11 03:04:13;;;;;;;1.65;1.00;;;;;;;10.06;63.20;97526.28;5012728;28;96917;-83
2023/03/11 03:06:39;;;;;;;1.58;0.82;;;;;;;10.00;63.53;97552.97;5010242;27;97169;-83
2023/03/11 03:09:04;;;;;;;2.63;1.33;;;;;;;9.91;63.13;97590.34;5045756;27;98125;-83
2023/03/11 03:11:31;;;;;;;1.23;0.68;;;;;;;9.62;58.18;97585.47;5025617;27;99992;-84
2023/03/11 03:13:57;;;;;;;0.57;0.40;;;;;;;9.36;58.36;97586.53;5012068;28;97209;-84
2023/03/11 03:16:23;;;;;;;0.82;0.60;;;;;;;9.28;56.41;97595.78;5022929;27;98007;-83
2023/03/11 03:18:48;;;;;;;4.25;0.90;;;;;;;9.14;56.83;97587.25;5028196;28;98108;-83
2023/03/11 03:21:14;;;;;;;0.60;0.50;;;;;;;9.07;55.91;97597.31;5028910;28;101441;-83
2023/03/11 03:23:40;;;;;;;1.85;0.93;;;;;;;8.91;55.30;97602.81;5026229;28;97374;-83
2023/03/11 03:26:05;;;;;;;3.00;0.60;;;;;;;8.83;55.76;97603.31;5026952;28;97249;-83
2023/03/11 03:28:34;;;;;;;0.80;0.70;;;;;;;8.87;55.59;97614.41;4991422;28;101799;-83
2023/03/11 03:31:09;;;;;;;0.68;0.55;;;;;;;8.83;55.16;97618.19;5017846;27;100816;-82
2023/03/11 03:33:37;;;;;;;1.13;0.77;;;;;;;8.74;55.29;97617.06;5009514;27;97251;-83
2023/03/11 03:36:06;;;;;;;3.38;0.70;;;;;;;8.63;54.36;97605.66;5011788;28;97114;-83
2023/03/11 03:38:37;;;;;;;1.02;0.80;;;;;;;8.56;54.57;97623.56;5012901;28;101531;-83
2023/03/11 03:41:03;;;;;;;1.08;0.70;;;;;;;8.51;54.57;97620.41;5028324;28;98010;-83
2023/03/11 03:43:29;;;;;;;0.80;0.47;;;;;;;8.44;54.29;97621.78;5029332;28;96864;-83
2023/03/11 03:46:03;;;;;;;2.50;0.70;;;;;;;8.27;54.14;97613.28;5011041;28;96919;-83
2023/03/11 03:48:33;;;;;;;0.63;0.60;;;;;;;8.20;53.99;97617.22;5010351;28;100847;-83
2023/03/11 03:51:06;;;;;;;0.60;0.40;;;;;;;8.29;54.05;97634.06;5009278;28;101138;-84
2023/03/11 03:53:32;;;;;;;;;;;;;;;8.28;54.13;97648.91;5025390;27;97388;-82
2023/03/11 03:56:02;;;;;;;0.65;0.40;;;;;;;8.07;53.79;97645.13;5010767;28;97372;-82
2023/03/11 03:58:29;;;;;;;1.43;0.47;;;;;;;8.06;53.36;97661.75;5009749;28;100269;-82
2023/03/11 04:00:56;;;;;;;0.80;0.47;;;;;;;8.05;52.67;97673.13;5027383;28;101762;-82
2023/03/11 04:03:22;;;;;;;0.20;0.20;;;;;;;7.97;53.17;97668.41;5012394;28;96724;-82
2023/03/11 04:05:53;;;;;;;0.40;0.30;;;;;;;7.85;53.26;97670.06;5013131;27;97147;-82
2023/03/11 04:08:20;;;;;;;1.65;0.38;;;;;;;7.87;53.25;97672.53;5006839;28;101378;-83
2023/03/11 04:10:55;;;;;;;0.30;0.30;;;;;;;7.92;53.19;97686.16;5026315;27;100845;-82
2023/03/11 04:13:21;;;;;;;0.20;0.20;;;;;;;7.75;53.29;97674.19;5012194;28;97329;-82
2023/03/11 04:15:47;;;;;;;0.20;0.20;;;;;;;7.87;53.65;97698.66;5029326;28;97243;-82
2023/03/11 04:18:12;;;;;;;0.20;0.20;;;;;;;7.83;53.90;97687.59;5028062;27;101381;-83
2023/03/11 04:20:38;;;;;;;1.25;0.60;;;;;;;7.55;53.20;97657.19;5011221;28;101971;-82
2023/03/11 04:23:04;;;;;;;0.55;0.30;;;;;;;7.65;53.01;97691.34;5022560;27;97188;-83
2023/03/11 04:25:29;;;;;;;0.30;0.30;;;;;;;7.41;53.05;97684.16;5007838;28;97473;-82
2023/03/11 04:27:55;;;;;;;0.28;0.28;;;;;;;7.54;53.26;97699.91;5026725;27;101359;-83
2023/03/11 04:30:21;;;;;;;0.57;0.40;;;;;;;7.43;53.34;97681.47;5007512;27;101138;-83
2023/03/11 04:32:50;;;;;;;0.40;0.30;;;;;;;7.50;53.53;97701.00;5012170;28;96991;-85
2023/03/11 04:35:17;;;;;;;1.83;0.55;;;;;;;7.54;53.56;97689.44;5011341;28;97007;-83
2023/03/11 04:37:43;;;;;;;1.00;0.60;;;;;;;7.43;53.41;97704.94;5028315;28;101206;-82
2023/03/11 04:40:10;;;;;;;0.70;0.25;;;;;;;7.31;53.28;97703.94;4994304;28;101346;-83
2023/03/11 04:42:35;;;;;;;0.43;0.32;;;;;;;7.33;53.66;97714.25;5011119;28;97251;-81
2023/03/11 04:45:01;;;;;;;0.20;0.20;;;;;;;7.10;53.68;97690.47;5007021;28;97062;-83
2023/03/11 04:47:29;;;;;;;0.47;0.32;;;;;;;7.11;54.04;97714.78;5008384;27;101624;-82
2023/03/11 04:49:55;;;;;;;1.08;0.50;;;;;;;7.00;53.87;97708.41;5007706;28;101709;-83
2023/03/11 04:52:22;;;;;;;3.70;0.50;;;;;;;6.98;54.20;97712.06;5025987;27;97189;-82
2023/03/11 04:54:47;;;;;;;2.42;0.40;;;;;;;6.92;54.27;97707.22;5002815;28;97083;-83
2023/03/11 04:57:13;;;;;;;0.30;0.30;;;;;;;6.91;54.47;97708.16;5023235;28;101565;-83
2023/03/11 04:59:41;;;;;;;0.50;0.50;;;;;;;6.92;54.81;97713.28;5010589;28;101592;-83
2023/03/11 05:02:07;;;;;;;1.88;0.40;;;;;;;6.95;54.49;97728.75;4992715;28;96982;-83
2023/03/11 05:04:33;;;;;;;0.30;0.30;;;;;;;6.82;55.28;97721.75;5011784;27;97268;-82
2023/03/11 05:06:59;;;;;;;1.30;0.70;;;;;;;6.79;54.94;97728.81;5011541;27;101312;-82
2023/03/11 05:09:25;;;;;;;0.40;0.40;;;;;;;6.75;55.65;97731.72;5015576;27;101421;-83
2023/03/11 05:11:52;;;;;;;1.50;0.70;;;;;;;6.73;56.54;97746.59;5011310;28;96896;-82
2023/03/11 05:14:18;;;;;;;0.43;0.43;;;;;;;6.61;56.22;97745.56;5028412;27;96786;-83
2023/03/11 05:16:45;;;;;;;0.80;0.60;;;;;;;6.56;56.99;97747.59;4994613;28;101499;-83
2023/03/11 05:19:33;;;;;;;1.50;0.90;;;;;;;6.57;57.07;97757.94;5004457;28;101556;-82
2023/03/11 05:21:58;;;;;;;2.00;1.00;;;;;;;6.46;57.72;97755.13;5013830;28;97185;-83
2023/03/11 05:24:25;;;;;;;1.63;1.10;;;;;;;6.57;57.99;97755.34;5004986;28;97192;-83
2023/03/11 05:26:51;;;;;;;2.00;0.87;;;;;;;6.54;57.39;97765.06;5031256;27;101598;-83
2023/03/11 05:29:17;;;;;;;1.23;0.90;;;;;;;6.48;57.22;97768.88;5030733;27;100955;-84
2023/03/11 05:31:43;;;;;;;3.00;1.10;;;;;;;6.21;57.86;97742.66;5031952;27;97207;-83
2023/03/11 05:34:09;;;;;;;3.13;1.00;;;;;;;6.44;57.84;97767.38;5014473;28;97084;-84
2023/03/11 05:36:35;;;;;;;2.70;1.37;;;;;;;6.46;57.64;97777.72;5013472;28;101372;-85
2023/03/11 05:39:00;;;;;;;3.03;1.13;;;;;;;6.41;57.96;97778.00;5007349;28;99852;-84
2023/03/11 05:41:26;;;;;;;1.73;0.90;;;;;;;6.45;57.76;97778.66;5014519;28;97142;-84
2023/03/11 05:43:52;;;;;;;1.23;0.83;;;;;;;6.47;57.71;97790.66;4996542;28;97256;-84
2023/03/11 05:46:19;;;;;;;0.80;0.70;;;;;;;6.46;57.97;97798.59;5016981;27;99877;-83
2023/03/11 05:48:45;;;;;;;1.60;0.80;;;;;;;6.56;57.94;97807.53;5029394;28;101990;-84
2023/03/11 05:51:12;;;;;;;1.20;0.83;;;;;;;6.53;58.31;97805.94;5030948;27;97671;-83
2023/03/11 05:53:47;;;;;;;1.52;0.90;;;;;;;6.47;58.35;97819.31;5030206;27;97308;-84
2023/03/11 05:56:15;;;;;;;1.67;1.20;;;;;;;6.45;58.74;97805.53;5011739;27;101261;-84
2023/03/11 05:58:41;;;;;;;1.03;0.80;;;;;;;6.43;58.71;97822.19;5031066;27;101543;-83
2023/03/11 06:01:09;;;;;;;2.20;0.60;;;;;;;6.32;58.85;97822.81;5029811;27;98032;-84
2023/03/11 06:03:34;;;;;;;4.70;0.83;;;;;;;6.23;59.52;97826.78;4998592;28;97606;-83
2023/03/11 06:06:00;;;;;;;1.20;1.00;;;;;;;6.12;60.12;97811.72;5010820;27;100991;-85
2023/03/11 06:08:26;;;;;;;2.20;1.13;;;;;;;6.01;59.80;97815.84;5030636;27;101244;-83
2023/03/11 06:10:52;;;;;;;2.23;0.60;;;;;;;5.99;60.10;97807.28;5030206;27;97197;-84
2023/03/11 06:13:19;;;;;;;1.50;0.90;;;;;;;6.15;60.13;97836.78;5028052;28;97007;-84
2023/03/11 06:15:48;;;;;;;1.30;0.73;;;;;;;6.16;60.39;97853.25;5030817;27;101761;-83
2023/03/11 06:18:14;;;;;;;1.10;0.90;;;;;;;6.15;60.65;97855.00;5031041;27;100823;-86
2023/03/11 06:20:39;;;;;;;1.43;1.07;;;;;;;6.04;60.40;97839.13;5019623;27;96832;-83
2023/03/11 06:23:05;;;;;;;1.23;0.90;;;;;;;5.88;60.80;97852.13;5017836;28;97277;-83
2023/03/11 06:25:31;;;;;;;1.00;0.90;;;;;;;5.84;61.31;97876.63;5023500;28;101941;-83
2023/03/11 06:27:57;;;;;;;1.07;0.97;;;;;;;5.86;61.05;97870.41;5012816;27;101440;-85
2023/03/11 06:30:24;;;;;;;1.93;1.00;;;;;;;5.79;61.87;97869.06;5006691;28;97233;-83
2023/03/11 06:32:57;;;;;;;1.20;0.97;;;;;;;5.82;61.50;97894.94;5009071;27;97258;-84
2023/03/11 06:35:22;;;;;;;1.00;0.80;;;;;;;5.65;61.64;97869.81;5027795;28;99898;-83
2023/03/11 06:37:48;;;;;;;1.43;1.00;;;;;;;5.78;61.30;97890.81;5010580;28;101567;-84
2023/03/11 06:40:14;;;;;;;3.30;1.20;;;;;;;5.82;61.60;97907.97;5026134;27;97863;-83
2023/03/11 06:42:39;;;;;;;2.67;1.47;;;;;;;5.71;61.86;97902.47;5031627;27;96801;-82
2023/03/11 06:45:08;;;;;;;1.43;1.10;;;;;;;5.71;62.05;97915.50;5026737;27;99912;-83
2023/03/11 06:47:33;;;;;;;1.87;1.30;;;;;;;5.79;62.05;97926.34;5008438;28;101558;-83
2023/03/11 06:50:05;;;;;;;1.37;1.20;;;;;;;5.71;62.39;97940.69;5012243;27;97192;-84
2023/03/11 06:52:31;;;;;;;1.48;1.13;;;;;;;5.79;62.20;97938.50;5016872;27;97091;-83
2023/03/11 06:54:56;;;;;;;12.43;1.47;;;;;;;5.73;61.93;97947.50;4993288;28;101599;-84
2023/03/11 06:57:22;;;;;;;1.90;1.40;;;;;;;5.70;62.35;97963.25;5010223;28;101122;-83
2023/03/11 06:59:50;;;;;;;1.73;1.50;;;;;;;5.82;62.11;97972.22;5014066;28;97106;-84
2023/03/11 07:02:17;;;;;;;1.53;1.20;;;;;;;5.77;62.22;97967.25;5020761;28;97407;-83
2023/03/11 07:04:43;;;;;;;2.40;1.50;;;;;;;5.77;62.02;97976.81;5028691;27;101203;-83
2023/03/11 07:07:08;;;;;;;2.10;1.60;;;;;;;5.71;62.49;97983.19;5061562;27;98095;-83
2023/03/11 07:09:34;;;;;;;3.37;2.00;;;;;;;5.70;62.66;97983.25;5033723;27;96822;-82
2023/03/11 07:12:01;;;;;;;2.00;1.40;;;;;;;5.73;62.73;97993.50;5019603;28;97525;-84
2023/03/11 07:14:32;;;;;;;4.60;2.50;;;;;;;5.65;62.57;97988.69;5035969;27;102010;-84
2023/03/11 07:16:57;;;;;;;2.43;1.37;;;;;;;5.61;62.71;97990.63;5017960;27;100366;-84
2023/03/11 07:19:42;;;;;;;1.90;1.37;;;;;;;5.72;62.79;98015.25;5018609;27;96785;-82
2023/03/11 07:22:07;;;;;;;1.73;1.43;;;;;;;5.73;62.68;98011.72;5012260;27;97207;-82
2023/03/11 07:24:33;;;;;;;2.37;1.50;;;;;;;5.73;62.71;98020.41;5014447;28;101275;-82
2023/03/11 07:26:58;;;;;;;2.43;1.70;;;;;;;5.69;63.04;98029.25;4995791;28;101377;-84
2023/03/11 07:29:24;;;;;;;4.43;1.50;;;;;;;5.75;62.76;98041.13;5011636;28;96901;-85
2023/03/11 07:31:49;;;;;;;1.77;1.50;;;;;;;5.76;63.06;98050.63;5012677;28;97259;-82
2023/03/11 07:34:15;;;;;;;2.20;1.33;;;;;;;5.67;63.05;98037.16;5012949;28;101658;-84
2023/03/11 07:36:41;;;;;;;4.00;1.67;;;;;;;5.65;62.90;98048.56;5027434;28;97595;-90
2023/03/11 07:39:06;;;;;;;2.90;2.00;;;;;;;5.47;62.94;98046.88;5005926;28;97428;-89
2023/03/11 07:41:34;;;;;;;2.43;1.70;;;;;;;5.38;63.15;98056.81;5026409;28;97169;-87
2023/03/11 07:44:01;;;;;;;1.40;1.20;;;;;;;5.60;63.23;98090.44;5008936;28;100939;-87
2023/03/11 07:46:27;;;;;;;1.77;1.33;;;;;;;5.44;62.94;98058.28;5009316;28;100266;-87
2023/03/11 07:48:54;;;;;;;2.20;1.50;;;;;;;5.49;63.09;98060.66;4995801;28;96802;-88
2023/03/11 07:51:20;;;;;;;2.07;1.60;;;;;;;5.62;63.08;98114.63;5013254;28;97358;-89
2023/03/11 07:53:46;;;;;;;2.63;1.63;;;;;;;5.62;62.99;98114.63;5012110;28;101288;-88
2023/03/11 07:56:14;;;;;;;2.10;1.27;;;;;;;5.59;63.48;98132.16;5011663;27;100176;-86
2023/03/11 07:58:40;;;;;;;2.60;1.50;;;;;;;5.58;62.93;98144.31;5040675;27;97072;-88
2023/03/11 08:01:17;;;;;;;2.77;1.60;;;;;;;5.56;63.00;98133.16;5025521;28;97324;-87
2023/03/11 08:03:44;;;;;;;1.90;1.57;;;;;;;5.37;62.80;98127.97;5006903;28;101445;-88
2023/03/11 08:06:13;;;;;;;3.03;1.70;;;;;;;5.57;62.87;98171.25;5012147;28;101355;-87
2023/03/11 08:08:38;;;;;;;3.40;1.60;;;;;;;5.56;62.57;98166.16;5011346;28;96887;-83
2023/03/11 08:11:04;;;;;;;2.33;1.87;;;;;;;5.29;62.87;98140.50;5028915;27;97091;-87
2023/03/11 08:13:29;;;;;;;3.73;2.07;;;;;;;5.45;62.86;98175.28;4993005;28;101349;-87
2023/03/11 08:15:55;;;;;;;2.90;1.60;;;;;;;5.31;62.80;98180.31;5013914;28;101816;-86
2023/03/11 08:18:20;;;;;;;3.60;1.63;;;;;;;5.50;63.20;98211.53;5014829;28;96841;-86
2023/03/11 08:20:46;;;;;;;2.27;1.63;;;;;;;5.50;62.78;98218.47;5014012;28;97253;-87
2023/03/11 08:23:12;;;;;;;2.93;1.70;;;;;;;5.45;63.22;98216.09;5012654;28;101620;-90
2023/03/11 08:25:38;;;;;;;3.27;1.73;;;;;;;5.19;62.93;98204.28;5031954;27;99937;-88
2023/03/11 08:28:06;;;;;;;1.83;1.50;;;;;;;5.42;62.95;98247.47;5011137;28;96796;-82
2023/03/11 08:30:32;;;;;;;3.43;1.60;;;;;;;5.45;62.65;98260.34;5001011;27;97005;-85
2023/03/11 08:32:58;;;;;;;2.73;1.70;;;;;;;5.40;63.20;98257.09;5008320;28;101235;-84
2023/03/11 08:35:24;;;;;;;3.10;2.00;;;;;;;5.42;63.29;98276.94;5028029;27;101532;-84
2023/03/11 08:37:50;;;;;;;3.50;2.00;;;;;;;5.42;62.82;98282.13;5028464;27;97963;-89
2023/03/11 08:40:16;;;;;;;2.20;1.57;;;;;;;5.44;63.26;98295.94;5012026;28;97175;-88
2023/03/11 08:42:42;;;;;;;2.93;1.83;;;;;;;5.33;62.76;98277.34;5028934;27;101364;-88
2023/03/11 08:45:08;;;;;;;3.37;1.60;;;;;;;5.37;63.28;98301.47;5046511;27;98276;-87
2023/03/11 08:47:35;;;;;;;3.50;1.70;;;;;;;5.42;62.92;98313.34;5014932;27;97428;-89
2023/03/11 08:50:01;;;;;;;2.23;1.33;;;;;;;5.30;62.88;98295.69;5006408;28;97387;-87
2023/03/11 08:52:27;;;;;;;2.47;1.80;;;;;;;5.42;63.03;98339.38;4997741;28;101745;-86
2023/03/11 08:54:52;;;;;;;3.03;1.80;;;;;;;5.47;62.94;98347.00;5028310;28;100895;-85
2023/03/11 08:57:18;;;;;;;4.60;1.63;;;;;;;5.45;62.88;98351.41;5030790;28;96963;-92
2023/03/11 08:59:43;;;;;;;2.30;1.53;;;;;;;5.24;62.65;98329.78;5024036;28;97758;-87
2023/03/11 09:02:10;;;;;;;3.13;1.73;;;;;;;5.39;62.72;98364.69;5023051;28;101238;-87
2023/03/11 09:04:35;;;;;;;3.73;2.07;;;;;;;5.36;62.81;98370.03;5022730;28;101557;-93
2023/03/11 09:07:01;;;;;;;1.77;1.40;;;;;;;5.35;62.49;98366.59;5035893;28;96827;-89
2023/03/11 09:09:27;;;;;;;2.07;1.33;;;;;;;5.36;62.86;98383.88;5043659;27;97388;-90
2023/03/11 09:11:52;;;;;;;1.93;1.50;;;;;;;5.29;62.79;98374.63;5015099;28;101226;-92
2023/03/11 09:14:18;;;;;;;3.27;1.70;;;;;;;5.35;62.67;98389.13;5030861;28;98470;-85
2023/03/11 09:16:43;;;;;;;2.83;1.37;;;;;;;5.43;63.03;98418.28;5023331;28;96915;-92
2023/03/11 09:19:09;;;;;;;2.60;1.60;;;;;;;5.42;62.76;98414.00;5049849;27;97176;-91
2023/03/11 09:21:36;;;;;;;5.87;1.80;;;;;;;5.24;62.85;98412.19;5016315;28;101513;-85
2023/03/11 09:24:03;;;;;;;2.93;1.90;;;;;;;5.37;63.02;98436.75;5028368;28;101275;-93
2023/03/11 09:26:29;;;;;;;3.37;1.80;;;;;;;5.17;62.98;98406.38;5017443;28;97097;-96
2023/03/11 09:28:55;;;;;;;2.83;1.77;;;;;;;5.32;62.92;98467.34;5016362;28;97167;-96
2023/03/11 09:31:23;;;;;;;3.03;1.90;;;;;;;5.29;62.15;98470.06;5005004;28;100834;-92
2023/03/11 09:33:54;;;;;;;2.67;1.63;;;;;;;5.16;62.34;98448.94;5015600;28;99825;-90
2023/03/11 09:36:20;;;;;;;3.93;2.60;;;;;;;5.15;62.37;98424.69;5017853;28;96827;-89
2023/03/11 09:38:46;;;;;;;8.23;4.70;;;;;;;5.27;61.89;98461.50;5033139;28;96882;-87
2023/03/11 09:41:17;;;;;;;8.07;4.80;;;;;;;5.38;61.57;98493.97;5012244;28;98169;-86
2023/03/11 09:44:09;;;;;;;4.33;3.30;;;;;;;5.38;62.10;98500.91;5022763;28;101324;-86
2023/03/11 09:47:12;;;;;;;2.58;1.85;;;;;;;5.34;62.27;98521.00;5007778;27;97227;-87
2023/03/11 09:49:56;;;;;;;2.90;1.83;;;;;;;5.12;62.26;98523.66;5033497;28;96905;-93
2023/03/11 09:52:35;;;;;;;2.80;1.60;;;;;;;4.91;62.25;98491.53;5035133;28;101621;-94
2023/03/11 09:55:02;;;;;;;2.83;1.47;;;;;;;5.16;62.68;98540.81;5015057;28;101512;-90
2023/03/11 09:57:31;;;;;;;2.87;2.13;;;;;;;5.13;63.05;98542.69;5017649;28;96767;-90
2023/03/11 09:59:57;;;;;;;3.23;1.97;;;;;;;4.94;63.46;98535.59;4998249;28;96949;-91
2023/03/11 10:02:26;;;;;;;3.97;2.40;;;;;;;5.10;63.55;98548.88;5030308;28;100660;-91
2023/03/11 10:05:02;;;;;;;4.70;2.60;;;;;;;5.25;63.32;98570.81;5014482;28;100843;-88
2023/03/11 10:07:37;;;;;;;6.63;3.10;;;;;;;5.28;63.49;98573.28;5009089;27;96817;-89
2023/03/11 10:10:03;;;;;;;5.03;3.07;;;;;;;5.26;62.98;98582.91;4999145;28;97303;-89
2023/03/11 10:12:44;;;;;;;7.47;3.03;;;;;;;5.28;62.61;98586.31;4996407;28;101646;-89
2023/03/11 10:15:42;;;;;;;5.50;3.20;;;;;;;5.07;62.84;98577.59;5016674;28;100690;-90
2023/03/11 10:18:30;;;;;;;5.13;2.23;;;;;;;5.20;62.56;98603.97;5030327;28;96709;-94
2023/03/11 10:21:15;;;;;;;6.30;3.10;;;;;;;5.27;62.23;98608.03;5032811;28;97876;-91
2023/03/11 10:24:13;;;;;;;6.53;2.90;;;;;;;5.27;62.17;98602.00;5008763;28;101331;-91
2023/03/11 10:26:54;;;;;;;10.53;2.50;;;;;;;5.43;62.06;98616.06;5016408;28;97833;-90
2023/03/11 10:29:28;;;;;;;5.47;3.17;;;;;;;5.57;61.86;98621.56;5030803;27;97239;-91
2023/03/11 10:32:04;;;;;;;2.70;2.30;;;;;;;5.63;61.74;98628.28;5017101;28;97447;-91
2023/03/11 10:34:33;;;;;;;4.47;2.43;;;;;;;5.50;61.32;98580.22;5032776;28;101272;-91
2023/03/11 10:37:17;;;;;;;4.47;2.30;;;;;;;5.56;60.75;98596.44;5015735;28;101221;-91
2023/03/11 10:39:46;;;;;;;3.90;2.40;;;;;;;5.58;59.69;98609.38;5016568;28;97088;-91
2023/03/11 10:42:14;;;;;;;2.20;1.60;;;;;;;5.74;nan;98648.69;5002168;28;97154;-92
2023/03/11 10:44:41;;;;;;;3.97;1.97;;;;;;;5.44;59.00;98615.16;5031841;28;101238;-91
2023/03/11 10:47:18;;;;;;;4.67;2.30;;;;;;;5.58;59.30;98651.03;4994321;28;100312;-93
2023/03/11 10:49:44;;;;;;;4.77;2.60;;;;;;;5.54;59.75;98644.28;5023437;27;97107;-92
2023/03/11 10:52:11;;;;;;;4.47;2.50;;;;;;;5.69;60.86;98661.88;5016145;28;97732;-91
2023/03/11 10:54:40;;;;;;;7.67;3.03;;;;;;;5.47;61.01;98645.41;4992673;28;100446;-90
2023/03/11 10:57:20;;;;;;;3.30;2.20;;;;;;;5.85;61.62;98691.59;4997908;28;101248;-93
2023/03/11 11:00:15;;;;;;;3.83;2.10;;;;;;;5.95;62.06;98663.44;5029010;28;97735;-83
2023/03/11 11:02:56;;;;;;;3.73;2.60;;;;;;;6.26;60.23;98696.03;5012357;28;97111;-84
2023/03/11 11:05:32;;;;;;;3.70;2.40;;;;;;;6.27;59.86;98700.31;5025729;27;101133;-83
2023/03/11 11:08:18;;;;;;;4.13;2.50;;;;;;;6.28;58.77;98708.09;5009312;28;101465;-83
2023/03/11 11:14:00;;;;;;;3.20;2.37;;;;;;;5.98;58.71;98659.84;5038373;27;96994;-89
2023/03/11 11:16:27;;;;;;;3.77;2.27;;;;;;;6.20;58.93;98717.16;5014325;28;101430;-87
2023/03/11 11:18:56;;;;;;;3.77;2.13;;;;;;;6.05;58.38;98716.00;5029432;28;100917;-87
2023/03/11 11:21:38;;;;;;;3.63;2.07;;;;;;;5.92;58.44;98717.38;5044776;27;97844;-87
2023/03/11 11:24:18;;;;;;;;;;;;;;;5.78;58.26;98730.94;5032521;27;96828;-87
2023/03/11 11:27:03;;;;;;;2.90;2.13;;;;;;;5.79;58.62;98733.50;5046765;27;100043;-89
2023/03/11 11:29:29;;;;;;;3.73;2.20;;;;;;;5.72;58.72;98720.78;5021142;28;99530;-87
2023/03/11 11:32:14;;;;;;;3.83;2.30;;;;;;;5.96;58.42;98748.47;5010877;28;96684;-86
2023/03/11 11:34:40;;;;;;;4.73;2.50;;;;;;;6.07;57.27;98750.66;5011670;28;97103;-86
2023/03/11 11:37:10;;;;;;;3.33;2.20;;;;;;;6.01;57.56;98736.13;5027708;27;100796;-87
2023/03/11 11:39:52;;;;;;;3.87;2.30;;;;;;;5.96;57.59;98727.63;5013115;28;98618;-86
2023/03/11 11:42:18;;;;;;;3.87;2.63;;;;;;;5.94;57.15;98749.47;5027756;27;97106;-86
2023/03/11 11:44:49;;;;;;;4.30;2.40;;;;;;;5.83;57.57;98765.47;5030532;28;97339;-84
2023/03/11 11:47:18;;;;;;;3.03;1.70;;;;;;;5.84;58.51;98769.75;5019434;28;102074;-86